Terminal Aerodrome Forecast
Issued by NWS Detroit/Pontiac, MI

Home | Current Version | Previous Version | Text Only | Print | Product List | Glossary On
Versions: 1 2 3 4 5 6 7 8 9 10 11 12 13 14 15 16 17 18 19 20 21 22 23 24 25 26 27 28 29 30
377
FTUS43 KDTX 260738 AAB
TAFDTW
TAF AMD
KDTW 260738Z 2608/2712 VRB03KT P6SM SKC
      TEMPO 2608/2609 5SM BR SKC
     FM260900 VRB03KT 4SM BR FEW025
     FM261300 25005KT P6SM SKC
     FM270000 19004KT P6SM SKC=

USA.gov is the U.S. government's official web portal to all federal, state and local government web resources and services.